sensor_id;sensor_type;location;lat;lon;timestamp;P1;durP1;ratioP1;P2;durP2;ratioP2
1785;SDS011;890;48.158;11.540;2023-08-12T00:01:30;6.23;;;5.23;;
1785;SDS011;890;48.158;11.540;2023-08-12T00:03:56;5.90;;;5.40;;
1785;SDS011;890;48.158;11.540;2023-08-12T00:06:21;6.10;;;5.60;;
1785;SDS011;890;48.158;11.540;2023-08-12T00:08:47;5.60;;;5.20;;
1785;SDS011;890;48.158;11.540;2023-08-12T00:11:12;5.77;;;5.37;;
1785;SDS011;890;48.158;11.540;2023-08-12T00:13:38;5.60;;;5.10;;
1785;SDS011;890;48.158;11.540;2023-08-12T00:16:04;8.43;;;5.60;;
1785;SDS011;890;48.158;11.540;2023-08-12T00:18:29;6.20;;;5.70;;
1785;SDS011;890;48.158;11.540;2023-08-12T00:20:55;6.00;;;5.50;;
1785;SDS011;890;48.158;11.540;2023-08-12T00:23:20;6.23;;;5.70;;
1785;SDS011;890;48.158;11.540;2023-08-12T00:25:46;5.33;;;4.93;;
1785;SDS011;890;48.158;11.540;2023-08-12T00:28:11;6.13;;;5.63;;
1785;SDS011;890;48.158;11.540;2023-08-12T00:30:37;8.13;;;5.50;;
1785;SDS011;890;48.158;11.540;2023-08-12T00:33:03;5.50;;;5.10;;
1785;SDS011;890;48.158;11.540;2023-08-12T00:35:29;6.20;;;5.70;;
1785;SDS011;890;48.158;11.540;2023-08-12T00:37:54;6.43;;;5.93;;
1785;SDS011;890;48.158;11.540;2023-08-12T00:40:20;6.40;;;5.90;;
1785;SDS011;890;48.158;11.540;2023-08-12T00:42:45;5.97;;;5.47;;
1785;SDS011;890;48.158;11.540;2023-08-12T00:45:12;6.47;;;5.87;;
1785;SDS011;890;48.158;11.540;2023-08-12T00:47:38;608.30;;;564.03;;
1785;SDS011;890;48.158;11.540;2023-08-12T00:50:05;1100.90;;;999.90;;
1785;SDS011;890;48.158;11.540;2023-08-12T00:52:31;1216.43;;;999.90;;
1785;SDS011;890;48.158;11.540;2023-08-12T00:54:57;1193.07;;;999.90;;
1785;SDS011;890;48.158;11.540;2023-08-12T00:57:23;1160.87;;;999.90;;
1785;SDS011;890;48.158;11.540;2023-08-12T00:59:49;1173.60;;;999.90;;
1785;SDS011;890;48.158;11.540;2023-08-12T01:02:15;1143.07;;;999.90;;
1785;SDS011;890;48.158;11.540;2023-08-12T01:04:40;1175.10;;;999.90;;
1785;SDS011;890;48.158;11.540;2023-08-12T01:07:06;1185.87;;;999.90;;
1785;SDS011;890;48.158;11.540;2023-08-12T01:09:31;1203.50;;;999.90;;
1785;SDS011;890;48.158;11.540;2023-08-12T01:12:01;1212.77;;;999.90;;
1785;SDS011;890;48.158;11.540;2023-08-12T01:17:00;1151.43;;;999.90;;
1785;SDS011;890;48.158;11.540;2023-08-12T01:19:38;1167.17;;;999.90;;
1785;SDS011;890;48.158;11.540;2023-08-12T01:22:08;1151.53;;;999.90;;
1785;SDS011;890;48.158;11.540;2023-08-12T01:24:39;1144.17;;;999.90;;
1785;SDS011;890;48.158;11.540;2023-08-12T01:27:06;1150.00;;;999.90;;
1785;SDS011;890;48.158;11.540;2023-08-12T01:29:33;1115.00;;;999.90;;
1785;SDS011;890;48.158;11.540;2023-08-12T01:34:44;1143.37;;;999.90;;
1785;SDS011;890;48.158;11.540;2023-08-12T01:37:30;1131.23;;;999.90;;
1785;SDS011;890;48.158;11.540;2023-08-12T01:39:59;1129.97;;;999.90;;
1785;SDS011;890;48.158;11.540;2023-08-12T01:42:29;1132.00;;;999.90;;
1785;SDS011;890;48.158;11.540;2023-08-12T01:44:56;1126.00;;;999.90;;
1785;SDS011;890;48.158;11.540;2023-08-12T01:47:22;1142.90;;;999.90;;
1785;SDS011;890;48.158;11.540;2023-08-12T01:49:47;1188.60;;;999.90;;
1785;SDS011;890;48.158;11.540;2023-08-12T01:52:13;1176.63;;;999.90;;
1785;SDS011;890;48.158;11.540;2023-08-12T01:54:38;1167.00;;;999.90;;
1785;SDS011;890;48.158;11.540;2023-08-12T01:57:04;1166.80;;;999.90;;
1785;SDS011;890;48.158;11.540;2023-08-12T01:59:31;1196.03;;;999.90;;
1785;SDS011;890;48.158;11.540;2023-08-12T02:01:57;1215.27;;;999.90;;
1785;SDS011;890;48.158;11.540;2023-08-12T02:04:22;1218.80;;;999.90;;
1785;SDS011;890;48.158;11.540;2023-08-12T02:06:48;1206.13;;;999.90;;
1785;SDS011;890;48.158;11.540;2023-08-12T02:09:14;952.87;;;895.17;;
1785;SDS011;890;48.158;11.540;2023-08-12T02:11:40;927.97;;;874.07;;
1785;SDS011;890;48.158;11.540;2023-08-12T02:14:06;417.33;;;394.73;;
1785;SDS011;890;48.158;11.540;2023-08-12T02:16:31;1003.77;;;945.77;;
1785;SDS011;890;48.158;11.540;2023-08-12T02:18:57;1184.00;;;999.90;;
1785;SDS011;890;48.158;11.540;2023-08-12T02:21:22;1139.27;;;999.90;;
1785;SDS011;890;48.158;11.540;2023-08-12T02:23:48;1195.43;;;999.90;;
1785;SDS011;890;48.158;11.540;2023-08-12T02:26:14;1168.60;;;999.90;;
1785;SDS011;890;48.158;11.540;2023-08-12T02:28:39;1166.80;;;999.90;;
1785;SDS011;890;48.158;11.540;2023-08-12T02:31:05;1148.13;;;999.90;;
1785;SDS011;890;48.158;11.540;2023-08-12T02:33:30;1167.70;;;999.90;;
1785;SDS011;890;48.158;11.540;2023-08-12T02:35:56;1158.60;;;999.90;;
1785;SDS011;890;48.158;11.540;2023-08-12T02:38:21;1189.63;;;999.90;;
1785;SDS011;890;48.158;11.540;2023-08-12T02:40:47;1109.97;;;999.90;;
1785;SDS011;890;48.158;11.540;2023-08-12T02:43:14;1126.27;;;999.90;;
1785;SDS011;890;48.158;11.540;2023-08-12T02:45:40;1079.27;;;999.90;;
1785;SDS011;890;48.158;11.540;2023-08-12T02:48:05;1030.63;;;963.23;;
1785;SDS011;890;48.158;11.540;2023-08-12T02:50:31;1139.37;;;999.90;;
1785;SDS011;890;48.158;11.540;2023-08-12T02:52:56;1079.23;;;999.90;;
1785;SDS011;890;48.158;11.540;2023-08-12T02:55:22;1161.43;;;999.90;;
1785;SDS011;890;48.158;11.540;2023-08-12T02:57:48;1128.03;;;999.90;;
1785;SDS011;890;48.158;11.540;2023-08-12T03:00:13;1113.03;;;999.90;;
1785;SDS011;890;48.158;11.540;2023-08-12T03:02:42;1086.03;;;999.90;;
1785;SDS011;890;48.158;11.540;2023-08-12T03:05:08;1088.70;;;999.90;;
1785;SDS011;890;48.158;11.540;2023-08-12T03:07:34;1126.97;;;999.90;;
1785;SDS011;890;48.158;11.540;2023-08-12T03:09:59;1153.40;;;999.90;;
1785;SDS011;890;48.158;11.540;2023-08-12T03:12:25;1124.17;;;999.90;;
1785;SDS011;890;48.158;11.540;2023-08-12T03:14:50;1123.57;;;999.90;;
1785;SDS011;890;48.158;11.540;2023-08-12T03:17:16;1069.47;;;998.40;;
1785;SDS011;890;48.158;11.540;2023-08-12T03:19:42;1091.53;;;999.90;;
1785;SDS011;890;48.158;11.540;2023-08-12T03:22:07;1217.03;;;999.90;;
1785;SDS011;890;48.158;11.540;2023-08-12T03:24:33;1186.60;;;999.90;;
1785;SDS011;890;48.158;11.540;2023-08-12T03:26:58;1115.60;;;999.90;;
1785;SDS011;890;48.158;11.540;2023-08-12T03:29:24;1053.63;;;981.13;;
1785;SDS011;890;48.158;11.540;2023-08-12T03:31:50;981.37;;;924.60;;
1785;SDS011;890;48.158;11.540;2023-08-12T03:34:15;1097.13;;;999.90;;
1785;SDS011;890;48.158;11.540;2023-08-12T03:36:42;1064.50;;;997.60;;
1785;SDS011;890;48.158;11.540;2023-08-12T03:39:07;1141.73;;;999.90;;
1785;SDS011;890;48.158;11.540;2023-08-12T03:41:33;1167.63;;;999.90;;
1785;SDS011;890;48.158;11.540;2023-08-12T03:43:58;1159.03;;;999.90;;
1785;SDS011;890;48.158;11.540;2023-08-12T03:46:24;1167.87;;;999.90;;
1785;SDS011;890;48.158;11.540;2023-08-12T03:48:50;1194.23;;;999.90;;
1785;SDS011;890;48.158;11.540;2023-08-12T03:51:15;1195.03;;;999.90;;
1785;SDS011;890;48.158;11.540;2023-08-12T03:53:41;1210.83;;;999.90;;
1785;SDS011;890;48.158;11.540;2023-08-12T03:56:07;1193.87;;;999.90;;
1785;SDS011;890;48.158;11.540;2023-08-12T03:58:32;1188.83;;;999.90;;
1785;SDS011;890;48.158;11.540;2023-08-12T04:00:58;1200.07;;;999.90;;
1785;SDS011;890;48.158;11.540;2023-08-12T04:03:24;1097.27;;;999.90;;
1785;SDS011;890;48.158;11.540;2023-08-12T04:05:50;1194.17;;;999.90;;
1785;SDS011;890;48.158;11.540;2023-08-12T04:08:18;1159.53;;;999.90;;
1785;SDS011;890;48.158;11.540;2023-08-12T04:10:45;1082.10;;;999.90;;
1785;SDS011;890;48.158;11.540;2023-08-12T04:13:12;1180.67;;;999.90;;
1785;SDS011;890;48.158;11.540;2023-08-12T04:15:38;1191.63;;;999.90;;
1785;SDS011;890;48.158;11.540;2023-08-12T04:18:04;1032.23;;;971.83;;
1785;SDS011;890;48.158;11.540;2023-08-12T04:20:30;1190.63;;;999.90;;
1785;SDS011;890;48.158;11.540;2023-08-12T04:22:55;1174.50;;;999.90;;
1785;SDS011;890;48.158;11.540;2023-08-12T04:25:21;982.37;;;924.70;;
1785;SDS011;890;48.158;11.540;2023-08-12T04:27:47;1018.83;;;960.77;;
1785;SDS011;890;48.158;11.540;2023-08-12T04:30:14;1059.80;;;993.70;;
1785;SDS011;890;48.158;11.540;2023-08-12T04:32:41;1069.73;;;999.53;;
1785;SDS011;890;48.158;11.540;2023-08-12T04:35:06;1108.33;;;999.90;;
1785;SDS011;890;48.158;11.540;2023-08-12T04:37:33;1155.07;;;999.90;;
1785;SDS011;890;48.158;11.540;2023-08-12T04:39:58;790.80;;;746.20;;
1785;SDS011;890;48.158;11.540;2023-08-12T04:42:24;990.20;;;934.67;;
1785;SDS011;890;48.158;11.540;2023-08-12T04:44:49;1205.77;;;999.90;;
1785;SDS011;890;48.158;11.540;2023-08-12T04:47:15;1106.53;;;999.90;;
1785;SDS011;890;48.158;11.540;2023-08-12T04:49:41;1198.63;;;999.90;;
1785;SDS011;890;48.158;11.540;2023-08-12T04:52:06;1192.20;;;999.90;;
1785;SDS011;890;48.158;11.540;2023-08-12T04:54:32;1052.53;;;987.27;;
1785;SDS011;890;48.158;11.540;2023-08-12T04:56:58;1211.17;;;999.90;;
1785;SDS011;890;48.158;11.540;2023-08-12T04:59:24;1189.57;;;999.90;;
1785;SDS011;890;48.158;11.540;2023-08-12T05:01:50;1179.43;;;999.90;;
1785;SDS011;890;48.158;11.540;2023-08-12T05:04:15;322.33;;;304.90;;
1785;SDS011;890;48.158;11.540;2023-08-12T05:06:41;110.07;;;103.83;;
1785;SDS011;890;48.158;11.540;2023-08-12T05:09:07;17.13;;;15.63;;
1785;SDS011;890;48.158;11.540;2023-08-12T05:11:33;8.10;;;6.40;;
1785;SDS011;890;48.158;11.540;2023-08-12T05:13:59;6.20;;;5.30;;
1785;SDS011;890;48.158;11.540;2023-08-12T05:16:24;5.87;;;5.00;;
1785;SDS011;890;48.158;11.540;2023-08-12T05:18:50;6.90;;;6.20;;
1785;SDS011;890;48.158;11.540;2023-08-12T05:21:16;7.90;;;6.77;;
1785;SDS011;890;48.158;11.540;2023-08-12T05:23:42;6.53;;;5.53;;
1785;SDS011;890;48.158;11.540;2023-08-12T05:26:07;6.20;;;5.60;;
1785;SDS011;890;48.158;11.540;2023-08-12T05:28:33;6.23;;;5.63;;
1785;SDS011;890;48.158;11.540;2023-08-12T05:30:58;5.83;;;5.10;;
1785;SDS011;890;48.158;11.540;2023-08-12T05:33:24;7.37;;;6.40;;
1785;SDS011;890;48.158;11.540;2023-08-12T05:35:50;6.23;;;5.60;;
1785;SDS011;890;48.158;11.540;2023-08-12T05:38:16;7.50;;;5.83;;
1785;SDS011;890;48.158;11.540;2023-08-12T05:40:41;5.87;;;5.17;;
1785;SDS011;890;48.158;11.540;2023-08-12T05:43:07;5.50;;;4.90;;
1785;SDS011;890;48.158;11.540;2023-08-12T05:45:33;5.83;;;5.33;;
1785;SDS011;890;48.158;11.540;2023-08-12T05:47:59;5.13;;;4.27;;
1785;SDS011;890;48.158;11.540;2023-08-12T05:50:24;8.53;;;5.53;;
1785;SDS011;890;48.158;11.540;2023-08-12T05:52:50;15.60;;;13.87;;
1785;SDS011;890;48.158;11.540;2023-08-12T05:55:15;5.97;;;4.97;;
1785;SDS011;890;48.158;11.540;2023-08-12T05:57:41;5.93;;;4.70;;
1785;SDS011;890;48.158;11.540;2023-08-12T06:00:07;5.40;;;4.40;;
1785;SDS011;890;48.158;11.540;2023-08-12T06:02:33;6.77;;;4.47;;
1785;SDS011;890;48.158;11.540;2023-08-12T06:04:58;17.50;;;8.10;;
1785;SDS011;890;48.158;11.540;2023-08-12T06:07:24;5.00;;;4.40;;
1785;SDS011;890;48.158;11.540;2023-08-12T06:09:49;5.40;;;4.90;;
1785;SDS011;890;48.158;11.540;2023-08-12T06:12:16;5.27;;;4.77;;
1785;SDS011;890;48.158;11.540;2023-08-12T06:14:42;4.90;;;4.40;;
1785;SDS011;890;48.158;11.540;2023-08-12T06:17:07;6.97;;;4.87;;
1785;SDS011;890;48.158;11.540;2023-08-12T06:19:33;5.60;;;4.67;;
1785;SDS011;890;48.158;11.540;2023-08-12T06:21:59;6.50;;;4.60;;
1785;SDS011;890;48.158;11.540;2023-08-12T06:24:24;6.07;;;4.30;;
1785;SDS011;890;48.158;11.540;2023-08-12T06:26:50;7.10;;;4.73;;
1785;SDS011;890;48.158;11.540;2023-08-12T06:29:15;6.87;;;5.33;;
1785;SDS011;890;48.158;11.540;2023-08-12T06:31:41;5.93;;;4.90;;
1785;SDS011;890;48.158;11.540;2023-08-12T06:34:07;8.27;;;5.60;;
1785;SDS011;890;48.158;11.540;2023-08-12T06:36:32;6.10;;;5.07;;
1785;SDS011;890;48.158;11.540;2023-08-12T06:38:58;5.63;;;5.00;;
1785;SDS011;890;48.158;11.540;2023-08-12T06:41:23;9.20;;;4.60;;
1785;SDS011;890;48.158;11.540;2023-08-12T06:43:49;5.10;;;4.60;;
1785;SDS011;890;48.158;11.540;2023-08-12T06:46:14;4.80;;;4.40;;
1785;SDS011;890;48.158;11.540;2023-08-12T06:48:40;6.20;;;4.67;;
1785;SDS011;890;48.158;11.540;2023-08-12T06:51:06;6.57;;;4.97;;
1785;SDS011;890;48.158;11.540;2023-08-12T06:53:40;5.63;;;5.07;;
1785;SDS011;890;48.158;11.540;2023-08-12T06:56:06;5.00;;;4.50;;
1785;SDS011;890;48.158;11.540;2023-08-12T06:58:31;5.30;;;4.63;;
1785;SDS011;890;48.158;11.540;2023-08-12T07:00:57;5.60;;;4.70;;
1785;SDS011;890;48.158;11.540;2023-08-12T07:03:24;5.30;;;4.80;;
1785;SDS011;890;48.158;11.540;2023-08-12T07:05:49;5.43;;;4.80;;
1785;SDS011;890;48.158;11.540;2023-08-12T07:08:15;5.97;;;4.80;;
1785;SDS011;890;48.158;11.540;2023-08-12T07:10:41;5.60;;;4.33;;
1785;SDS011;890;48.158;11.540;2023-08-12T07:13:07;7.90;;;5.60;;
1785;SDS011;890;48.158;11.540;2023-08-12T07:15:32;6.20;;;5.13;;
1785;SDS011;890;48.158;11.540;2023-08-12T07:17:58;6.63;;;4.83;;
1785;SDS011;890;48.158;11.540;2023-08-12T07:20:24;7.53;;;5.10;;
1785;SDS011;890;48.158;11.540;2023-08-12T07:22:50;11.40;;;5.73;;
1785;SDS011;890;48.158;11.540;2023-08-12T07:25:16;5.37;;;4.40;;
1785;SDS011;890;48.158;11.540;2023-08-12T07:27:42;5.83;;;4.50;;
1785;SDS011;890;48.158;11.540;2023-08-12T07:30:08;7.40;;;5.73;;
1785;SDS011;890;48.158;11.540;2023-08-12T07:32:36;5.47;;;4.77;;
1785;SDS011;890;48.158;11.540;2023-08-12T07:35:02;5.10;;;3.87;;
1785;SDS011;890;48.158;11.540;2023-08-12T07:37:28;4.60;;;4.20;;
1785;SDS011;890;48.158;11.540;2023-08-12T07:39:54;5.30;;;4.57;;
1785;SDS011;890;48.158;11.540;2023-08-12T07:42:19;4.70;;;4.30;;
1785;SDS011;890;48.158;11.540;2023-08-12T07:44:45;6.50;;;4.47;;
1785;SDS011;890;48.158;11.540;2023-08-12T07:47:11;6.67;;;4.57;;
1785;SDS011;890;48.158;11.540;2023-08-12T07:49:36;8.13;;;4.70;;
1785;SDS011;890;48.158;11.540;2023-08-12T07:52:04;5.67;;;4.60;;
1785;SDS011;890;48.158;11.540;2023-08-12T07:54:30;5.10;;;4.60;;
1785;SDS011;890;48.158;11.540;2023-08-12T07:56:55;5.73;;;4.40;;
1785;SDS011;890;48.158;11.540;2023-08-12T07:59:21;5.27;;;4.20;;
1785;SDS011;890;48.158;11.540;2023-08-12T08:01:46;8.27;;;5.70;;
1785;SDS011;890;48.158;11.540;2023-08-12T08:04:12;8.40;;;5.07;;
1785;SDS011;890;48.158;11.540;2023-08-12T08:06:38;6.27;;;4.90;;
1785;SDS011;890;48.158;11.540;2023-08-12T08:09:03;4.13;;;3.73;;
1785;SDS011;890;48.158;11.540;2023-08-12T08:11:29;5.27;;;4.87;;
1785;SDS011;890;48.158;11.540;2023-08-12T08:13:57;5.00;;;4.53;;
1785;SDS011;890;48.158;11.540;2023-08-12T08:16:23;5.30;;;4.77;;
1785;SDS011;890;48.158;11.540;2023-08-12T08:18:49;4.93;;;4.53;;
1785;SDS011;890;48.158;11.540;2023-08-12T08:21:15;5.90;;;5.30;;
1785;SDS011;890;48.158;11.540;2023-08-12T08:23:40;4.60;;;4.20;;
1785;SDS011;890;48.158;11.540;2023-08-12T08:26:07;5.70;;;5.20;;
1785;SDS011;890;48.158;11.540;2023-08-12T08:28:33;4.77;;;4.37;;
1785;SDS011;890;48.158;11.540;2023-08-12T08:30:59;4.90;;;4.50;;
1785;SDS011;890;48.158;11.540;2023-08-12T08:33:26;5.53;;;4.93;;
1785;SDS011;890;48.158;11.540;2023-08-12T08:35:51;5.30;;;4.43;;
1785;SDS011;890;48.158;11.540;2023-08-12T08:38:18;5.00;;;4.60;;
1785;SDS011;890;48.158;11.540;2023-08-12T08:40:44;4.37;;;3.93;;
1785;SDS011;890;48.158;11.540;2023-08-12T08:43:10;4.90;;;4.50;;
1785;SDS011;890;48.158;11.540;2023-08-12T08:45:43;5.67;;;4.57;;
1785;SDS011;890;48.158;11.540;2023-08-12T08:48:09;4.63;;;4.20;;
1785;SDS011;890;48.158;11.540;2023-08-12T08:50:36;4.73;;;4.33;;
1785;SDS011;890;48.158;11.540;2023-08-12T08:53:02;6.03;;;4.97;;
1785;SDS011;890;48.158;11.540;2023-08-12T08:55:31;4.17;;;3.87;;
1785;SDS011;890;48.158;11.540;2023-08-12T08:57:57;4.43;;;4.13;;
1785;SDS011;890;48.158;11.540;2023-08-12T09:00:23;5.97;;;4.03;;
1785;SDS011;890;48.158;11.540;2023-08-12T09:02:50;4.33;;;3.93;;
1785;SDS011;890;48.158;11.540;2023-08-12T09:05:16;4.37;;;4.07;;
1785;SDS011;890;48.158;11.540;2023-08-12T09:07:43;4.87;;;4.47;;
1785;SDS011;890;48.158;11.540;2023-08-12T09:10:09;5.03;;;4.50;;
1785;SDS011;890;48.158;11.540;2023-08-12T09:12:36;4.90;;;4.50;;
1785;SDS011;890;48.158;11.540;2023-08-12T09:15:02;6.60;;;5.10;;
1785;SDS011;890;48.158;11.540;2023-08-12T09:17:29;7.53;;;5.20;;
1785;SDS011;890;48.158;11.540;2023-08-12T09:19:57;6.73;;;4.87;;
1785;SDS011;890;48.158;11.540;2023-08-12T09:22:23;4.53;;;3.97;;
1785;SDS011;890;48.158;11.540;2023-08-12T09:24:50;6.03;;;5.07;;
1785;SDS011;890;48.158;11.540;2023-08-12T09:27:22;6.37;;;4.80;;
1785;SDS011;890;48.158;11.540;2023-08-12T09:29:49;5.93;;;4.90;;
1785;SDS011;890;48.158;11.540;2023-08-12T09:32:18;4.33;;;3.93;;
1785;SDS011;890;48.158;11.540;2023-08-12T09:34:54;5.73;;;4.80;;
1785;SDS011;890;48.158;11.540;2023-08-12T09:37:21;6.90;;;5.10;;
1785;SDS011;890;48.158;11.540;2023-08-12T09:39:49;8.47;;;5.30;;
1785;SDS011;890;48.158;11.540;2023-08-12T09:42:16;8.50;;;5.10;;
1785;SDS011;890;48.158;11.540;2023-08-12T09:44:42;7.40;;;5.10;;
1785;SDS011;890;48.158;11.540;2023-08-12T09:47:08;5.97;;;5.10;;
1785;SDS011;890;48.158;11.540;2023-08-12T09:49:34;8.57;;;6.40;;
1785;SDS011;890;48.158;11.540;2023-08-12T09:52:01;10.53;;;9.63;;
1785;SDS011;890;48.158;11.540;2023-08-12T09:54:28;17.27;;;16.00;;
1785;SDS011;890;48.158;11.540;2023-08-12T09:56:57;52.13;;;49.27;;
1785;SDS011;890;48.158;11.540;2023-08-12T09:59:24;5.57;;;4.97;;
1785;SDS011;890;48.158;11.540;2023-08-12T10:01:55;5.80;;;4.87;;
1785;SDS011;890;48.158;11.540;2023-08-12T10:04:22;7.73;;;5.63;;
1785;SDS011;890;48.158;11.540;2023-08-12T10:06:51;9.27;;;5.80;;
1785;SDS011;890;48.158;11.540;2023-08-12T10:09:18;5.33;;;4.87;;
1785;SDS011;890;48.158;11.540;2023-08-12T10:11:45;5.00;;;4.60;;
1785;SDS011;890;48.158;11.540;2023-08-12T10:14:12;6.40;;;4.83;;
1785;SDS011;890;48.158;11.540;2023-08-12T10:16:39;5.83;;;4.97;;
1785;SDS011;890;48.158;11.540;2023-08-12T10:19:10;8.70;;;4.60;;
1785;SDS011;890;48.158;11.540;2023-08-12T10:21:37;5.40;;;4.57;;
1785;SDS011;890;48.158;11.540;2023-08-12T10:24:03;7.83;;;7.07;;
1785;SDS011;890;48.158;11.540;2023-08-12T10:26:30;238.13;;;224.50;;
1785;SDS011;890;48.158;11.540;2023-08-12T10:28:57;5.07;;;4.67;;
1785;SDS011;890;48.158;11.540;2023-08-12T10:31:24;50.63;;;47.00;;
1785;SDS011;890;48.158;11.540;2023-08-12T10:33:51;6.17;;;5.03;;
1785;SDS011;890;48.158;11.540;2023-08-12T10:36:17;4.70;;;4.30;;
1785;SDS011;890;48.158;11.540;2023-08-12T10:38:45;38.90;;;36.50;;
1785;SDS011;890;48.158;11.540;2023-08-12T10:41:18;4.93;;;4.10;;
1785;SDS011;890;48.158;11.540;2023-08-12T10:46:32;4.60;;;3.60;;
1785;SDS011;890;48.158;11.540;2023-08-12T10:49:03;3.80;;;3.50;;
1785;SDS011;890;48.158;11.540;2023-08-12T11:02:18;2.60;;;2.40;;
1785;SDS011;890;48.158;11.540;2023-08-12T11:04:56;2.40;;;2.20;;
1785;SDS011;890;48.158;11.540;2023-08-12T11:07:29;7.40;;;3.90;;
1785;SDS011;890;48.158;11.540;2023-08-12T11:09:59;3.00;;;2.70;;
1785;SDS011;890;48.158;11.540;2023-08-12T11:18:07;700.27;;;644.23;;
1785;SDS011;890;48.158;11.540;2023-08-12T11:20:41;982.63;;;921.97;;
1785;SDS011;890;48.158;11.540;2023-08-12T11:23:07;128.67;;;122.80;;
1785;SDS011;890;48.158;11.540;2023-08-12T11:25:34;51.57;;;49.20;;
1785;SDS011;890;48.158;11.540;2023-08-12T11:28:03;40.43;;;38.23;;
1785;SDS011;890;48.158;11.540;2023-08-12T11:30:29;7.03;;;4.83;;
1785;SDS011;890;48.158;11.540;2023-08-12T11:32:55;4.87;;;2.80;;
1785;SDS011;890;48.158;11.540;2023-08-12T11:35:22;3.73;;;3.13;;
1785;SDS011;890;48.158;11.540;2023-08-12T11:37:49;2.90;;;2.60;;
1785;SDS011;890;48.158;11.540;2023-08-12T11:40:18;4.40;;;3.10;;
1785;SDS011;890;48.158;11.540;2023-08-12T11:42:45;3.67;;;2.60;;
1785;SDS011;890;48.158;11.540;2023-08-12T11:45:12;3.80;;;3.40;;
1785;SDS011;890;48.158;11.540;2023-08-12T11:47:41;3.13;;;2.90;;
1785;SDS011;890;48.158;11.540;2023-08-12T11:50:08;3.30;;;3.00;;
1785;SDS011;890;48.158;11.540;2023-08-12T11:52:36;3.30;;;2.67;;
1785;SDS011;890;48.158;11.540;2023-08-12T11:55:02;4.63;;;3.73;;
1785;SDS011;890;48.158;11.540;2023-08-12T11:57:29;3.40;;;2.93;;
1785;SDS011;890;48.158;11.540;2023-08-12T12:00:04;3.13;;;2.83;;
1785;SDS011;890;48.158;11.540;2023-08-12T12:02:45;4.17;;;3.77;;
1785;SDS011;890;48.158;11.540;2023-08-12T12:05:13;3.50;;;3.20;;
1785;SDS011;890;48.158;11.540;2023-08-12T12:07:39;2.90;;;2.70;;
1785;SDS011;890;48.158;11.540;2023-08-12T12:10:06;2.83;;;2.63;;
1785;SDS011;890;48.158;11.540;2023-08-12T12:12:35;2.60;;;2.40;;
1785;SDS011;890;48.158;11.540;2023-08-12T12:15:02;3.33;;;3.03;;
1785;SDS011;890;48.158;11.540;2023-08-12T12:17:28;2.63;;;2.43;;
1785;SDS011;890;48.158;11.540;2023-08-12T12:19:57;2.93;;;2.63;;
1785;SDS011;890;48.158;11.540;2023-08-12T12:22:30;3.77;;;3.40;;
1785;SDS011;890;48.158;11.540;2023-08-12T12:24:58;3.90;;;3.60;;
1785;SDS011;890;48.158;11.540;2023-08-12T12:27:25;4.30;;;4.00;;
1785;SDS011;890;48.158;11.540;2023-08-12T12:29:52;3.73;;;3.43;;
1785;SDS011;890;48.158;11.540;2023-08-12T12:32:18;4.00;;;3.50;;
1785;SDS011;890;48.158;11.540;2023-08-12T12:34:45;4.67;;;3.90;;
1785;SDS011;890;48.158;11.540;2023-08-12T12:37:11;4.37;;;4.07;;
1785;SDS011;890;48.158;11.540;2023-08-12T12:39:37;5.23;;;3.60;;
1785;SDS011;890;48.158;11.540;2023-08-12T12:42:03;4.23;;;3.87;;
1785;SDS011;890;48.158;11.540;2023-08-12T12:44:29;4.23;;;3.73;;
1785;SDS011;890;48.158;11.540;2023-08-12T12:46:55;4.97;;;4.07;;
1785;SDS011;890;48.158;11.540;2023-08-12T12:49:20;4.00;;;3.70;;
1785;SDS011;890;48.158;11.540;2023-08-12T12:51:46;4.90;;;4.07;;
1785;SDS011;890;48.158;11.540;2023-08-12T12:54:12;3.97;;;3.67;;
1785;SDS011;890;48.158;11.540;2023-08-12T12:56:38;4.17;;;3.87;;
1785;SDS011;890;48.158;11.540;2023-08-12T12:59:03;4.50;;;4.00;;
1785;SDS011;890;48.158;11.540;2023-08-12T13:01:29;3.90;;;3.60;;
1785;SDS011;890;48.158;11.540;2023-08-12T13:03:54;3.40;;;3.20;;
1785;SDS011;890;48.158;11.540;2023-08-12T13:06:20;4.20;;;3.70;;
1785;SDS011;890;48.158;11.540;2023-08-12T13:08:46;4.00;;;3.37;;
1785;SDS011;890;48.158;11.540;2023-08-12T13:11:11;3.93;;;3.63;;
1785;SDS011;890;48.158;11.540;2023-08-12T13:13:37;4.03;;;3.63;;
1785;SDS011;890;48.158;11.540;2023-08-12T13:16:02;3.80;;;3.50;;
1785;SDS011;890;48.158;11.540;2023-08-12T13:18:28;3.93;;;3.53;;
1785;SDS011;890;48.158;11.540;2023-08-12T13:20:54;3.93;;;3.53;;
1785;SDS011;890;48.158;11.540;2023-08-12T13:23:20;3.50;;;3.20;;
1785;SDS011;890;48.158;11.540;2023-08-12T13:25:45;3.70;;;3.30;;
1785;SDS011;890;48.158;11.540;2023-08-12T13:28:11;3.43;;;3.13;;
1785;SDS011;890;48.158;11.540;2023-08-12T13:30:36;3.50;;;3.20;;
1785;SDS011;890;48.158;11.540;2023-08-12T13:33:02;3.90;;;3.60;;
1785;SDS011;890;48.158;11.540;2023-08-12T13:35:29;4.97;;;4.47;;
1785;SDS011;890;48.158;11.540;2023-08-12T13:37:54;4.07;;;3.77;;
1785;SDS011;890;48.158;11.540;2023-08-12T13:40:20;4.80;;;3.47;;
1785;SDS011;890;48.158;11.540;2023-08-12T13:42:46;4.00;;;3.60;;
1785;SDS011;890;48.158;11.540;2023-08-12T13:45:12;3.93;;;3.63;;
1785;SDS011;890;48.158;11.540;2023-08-12T13:47:38;3.97;;;3.67;;
1785;SDS011;890;48.158;11.540;2023-08-12T13:50:03;3.63;;;3.33;;
1785;SDS011;890;48.158;11.540;2023-08-12T13:52:30;4.20;;;3.37;;
1785;SDS011;890;48.158;11.540;2023-08-12T13:54:56;4.00;;;3.60;;
1785;SDS011;890;48.158;11.540;2023-08-12T13:57:21;20.50;;;18.27;;
1785;SDS011;890;48.158;11.540;2023-08-12T13:59:47;3.47;;;3.17;;
1785;SDS011;890;48.158;11.540;2023-08-12T14:02:13;3.30;;;3.10;;
1785;SDS011;890;48.158;11.540;2023-08-12T14:04:39;4.30;;;3.50;;
1785;SDS011;890;48.158;11.540;2023-08-12T14:07:05;11.20;;;3.30;;
1785;SDS011;890;48.158;11.540;2023-08-12T14:09:31;4.83;;;3.37;;
1785;SDS011;890;48.158;11.540;2023-08-12T14:11:57;3.53;;;2.80;;
1785;SDS011;890;48.158;11.540;2023-08-12T14:14:23;3.63;;;3.33;;
1785;SDS011;890;48.158;11.540;2023-08-12T14:16:52;4.83;;;3.90;;
1785;SDS011;890;48.158;11.540;2023-08-12T14:19:18;4.20;;;3.60;;
1785;SDS011;890;48.158;11.540;2023-08-12T14:21:44;4.03;;;3.73;;
1785;SDS011;890;48.158;11.540;2023-08-12T14:24:09;4.83;;;4.03;;
1785;SDS011;890;48.158;11.540;2023-08-12T14:26:35;4.07;;;3.63;;
1785;SDS011;890;48.158;11.540;2023-08-12T14:29:01;4.23;;;3.93;;
1785;SDS011;890;48.158;11.540;2023-08-12T14:31:26;4.77;;;3.87;;
1785;SDS011;890;48.158;11.540;2023-08-12T14:33:52;4.77;;;3.73;;
1785;SDS011;890;48.158;11.540;2023-08-12T14:36:18;4.50;;;4.10;;
1785;SDS011;890;48.158;11.540;2023-08-12T14:38:43;4.10;;;3.80;;
1785;SDS011;890;48.158;11.540;2023-08-12T14:41:09;4.53;;;4.13;;
1785;SDS011;890;48.158;11.540;2023-08-12T14:43:35;5.10;;;4.60;;
1785;SDS011;890;48.158;11.540;2023-08-12T14:46:02;4.47;;;4.07;;
1785;SDS011;890;48.158;11.540;2023-08-12T14:48:27;4.50;;;4.10;;
1785;SDS011;890;48.158;11.540;2023-08-12T14:50:53;5.03;;;4.53;;
1785;SDS011;890;48.158;11.540;2023-08-12T14:53:19;4.97;;;4.57;;
1785;SDS011;890;48.158;11.540;2023-08-12T14:55:45;4.83;;;4.43;;
1785;SDS011;890;48.158;11.540;2023-08-12T14:58:11;4.27;;;3.97;;
1785;SDS011;890;48.158;11.540;2023-08-12T15:00:37;4.20;;;3.90;;
1785;SDS011;890;48.158;11.540;2023-08-12T15:03:03;5.03;;;3.90;;
1785;SDS011;890;48.158;11.540;2023-08-12T15:05:29;4.67;;;3.90;;
1785;SDS011;890;48.158;11.540;2023-08-12T15:07:54;4.03;;;3.63;;
1785;SDS011;890;48.158;11.540;2023-08-12T15:10:20;5.53;;;3.97;;
1785;SDS011;890;48.158;11.540;2023-08-12T15:12:46;5.37;;;3.67;;
1785;SDS011;890;48.158;11.540;2023-08-12T15:15:11;3.70;;;3.40;;